Time;durP1;ratioP1;P1;durP2;ratioP2;P2;SDS_P1;SDS_P2;PMS_P1;PMS_P2;Temp;Humidity;BMP_temperature;BMP_pressure;BME280_temperature;BME280_humidity;BME280_pressure;Samples;Min_cycle;Max_cycle;Signal;HPM_P1;HPM_P2
2023/07/07 00:00:02;;;;;;;6.07;3.50;;;14.20;99.90;;;;;;5045116;28;20421;-66
2023/07/07 00:02:28;;;;;;;6.40;3.80;;;14.10;99.90;;;;;;5040496;28;20482;-65
2023/07/07 00:04:53;;;;;;;5.80;4.10;;;14.10;99.90;;;;;;5046684;28;20405;-66
2023/07/07 00:07:19;;;;;;;6.50;3.60;;;14.10;99.90;;;;;;5044575;28;20416;-65
2023/07/07 00:09:45;;;;;;;5.07;3.55;;;14.10;99.90;;;;;;5041808;28;20840;-64
2023/07/07 00:12:10;;;;;;;5.13;3.78;;;14.10;99.90;;;;;;5041691;28;20495;-65
2023/07/07 00:14:36;;;;;;;6.10;3.90;;;14.10;99.90;;;;;;5043353;28;20417;-66
2023/07/07 00:17:02;;;;;;;6.35;3.78;;;14.10;99.90;;;;;;5037893;28;20422;-66
2023/07/07 00:19:33;;;;;;;7.30;3.60;;;14.00;99.90;;;;;;5044014;28;20421;-66
2023/07/07 00:22:03;;;;;;;6.47;3.75;;;14.10;99.90;;;;;;5039598;28;20798;-65
2023/07/07 00:24:29;;;;;;;6.10;3.90;;;14.00;99.90;;;;;;5042986;28;20795;-65
2023/07/07 00:26:54;;;;;;;6.32;3.90;;;14.00;99.90;;;;;;5044842;28;20819;-65
2023/07/07 00:29:20;;;;;;;6.23;3.87;;;14.00;99.90;;;;;;5043227;28;20429;-66
2023/07/07 00:31:46;;;;;;;5.83;3.83;;;14.00;99.90;;;;;;5047861;28;20412;-66
2023/07/07 00:34:11;;;;;;;6.43;4.13;;;14.30;99.90;;;;;;5026116;28;20417;-65
2023/07/07 00:36:37;;;;;;;8.17;4.40;;;14.00;99.90;;;;;;5023124;28;20417;-65
2023/07/07 00:39:02;;;;;;;6.82;4.57;;;14.00;99.90;;;;;;5040336;28;20504;-65
2023/07/07 00:41:28;;;;;;;6.32;4.60;;;14.00;99.90;;;;;;5042374;28;20775;-65
2023/07/07 00:44:06;;;;;;;6.45;4.38;;;14.00;99.90;;;;;;5028687;28;20499;-65
2023/07/07 00:46:32;;;;;;;6.68;4.60;;;14.00;99.90;;;;;;5042341;28;20427;-65
2023/07/07 00:49:01;;;;;;;6.13;4.63;;;14.00;99.90;;;;;;5027081;28;20429;-65
2023/07/07 00:51:36;;;;;;;7.88;5.18;;;14.00;99.90;;;;;;5044123;28;20471;-65
2023/07/07 00:54:11;;;;;;;9.05;5.50;;;14.10;99.90;;;;;;5045728;28;20490;-65
2023/07/07 00:56:40;;;;;;;8.23;5.50;;;14.00;99.90;;;;;;5044374;28;20405;-65
2023/07/07 00:59:12;;;;;;;8.90;5.25;;;14.00;99.90;;;;;;5048885;28;20416;-65
2023/07/07 01:01:39;;;;;;;8.88;5.57;;;14.00;99.90;;;;;;5025327;28;20767;-66
2023/07/07 01:04:10;;;;;;;6.83;5.50;;;14.00;99.90;;;;;;5044037;28;21038;-65
2023/07/07 01:06:40;;;;;;;9.13;5.70;;;14.10;99.90;;;;;;5042254;28;20425;-65
2023/07/07 01:09:10;;;;;;;7.72;6.00;;;14.00;99.90;;;;;;5047397;28;20412;-65
2023/07/07 01:11:37;;;;;;;11.07;5.97;;;14.00;99.90;;;;;;5051618;28;20401;-65
2023/07/07 01:14:07;;;;;;;8.77;6.28;;;14.00;99.90;;;;;;5047694;28;20490;-66
2023/07/07 01:16:45;;;;;;;9.20;6.17;;;14.00;99.90;;;;;;5046805;28;20432;-65
2023/07/07 01:19:35;;;;;;;9.37;6.77;;;14.00;99.90;;;;;;5043162;28;20432;-65
2023/07/07 01:22:19;;;;;;;12.05;7.20;;;14.10;99.90;;;;;;5023919;28;20443;-65
2023/07/07 01:25:18;;;;;;;9.95;7.68;;;14.10;99.90;;;;;;5044961;28;20760;-65
2023/07/07 01:28:31;;;;;;;9.48;7.85;;;14.10;99.90;;;;;;5042752;28;20411;-65
2023/07/07 01:31:03;;;;;;;13.02;8.30;;;14.10;99.90;;;;;;5049365;28;20890;-65
2023/07/07 01:33:31;;;;;;;13.30;8.32;;;14.10;99.90;;;;;;5047651;28;20419;-65
2023/07/07 01:35:57;;;;;;;11.13;8.63;;;14.00;99.90;;;;;;5049936;28;20440;-65
2023/07/07 01:38:33;;;;;;;11.70;8.55;;;14.00;99.90;;;;;;5049695;28;20839;-65
2023/07/07 01:41:04;;;;;;;10.93;8.93;;;14.00;99.90;;;;;;5050462;28;20417;-66
2023/07/07 01:43:53;;;;;;;12.07;9.20;;;14.00;99.90;;;;;;5049371;28;20413;-65
2023/07/07 01:46:29;;;;;;;14.07;9.75;;;14.00;99.90;;;;;;5038440;28;20501;-65
2023/07/07 01:49:23;;;;;;;13.30;10.20;;;14.00;99.90;;;;;;5030837;28;20433;-66
2023/07/07 01:52:01;;;;;;;14.55;11.10;;;14.00;99.90;;;;;;5041068;28;20441;-65
2023/07/07 01:54:30;;;;;;;14.77;10.97;;;14.00;99.90;;;;;;5049839;28;20405;-65
2023/07/07 01:56:58;;;;;;;15.00;11.02;;;14.00;99.90;;;;;;5032457;28;20826;-66
2023/07/07 01:59:24;;;;;;;15.20;11.65;;;14.00;99.90;;;;;;5033028;28;20975;-65
2023/07/07 02:01:50;;;;;;;15.00;11.40;;;14.00;99.90;;;;;;5062538;28;20408;-65
2023/07/07 02:04:16;;;;;;;17.60;12.25;;;14.00;99.90;;;;;;5055784;28;20454;-65
2023/07/07 02:06:41;;;;;;;17.20;12.27;;;14.10;99.90;;;;;;5032303;28;20439;-65
2023/07/07 02:09:07;;;;;;;17.13;12.10;;;14.00;99.90;;;;;;5028527;28;20430;-66
2023/07/07 02:11:33;;;;;;;16.23;12.10;;;14.10;99.90;;;;;;5048580;28;20479;-65
2023/07/07 02:13:58;;;;;;;15.70;12.77;;;14.00;99.90;;;;;;5047511;28;20662;-65
2023/07/07 02:16:24;;;;;;;15.85;12.52;;;14.10;99.90;;;;;;5038967;28;20421;-66
2023/07/07 02:18:51;;;;;;;17.77;13.23;;;14.20;99.90;;;;;;5052491;28;20419;-65
2023/07/07 02:21:18;;;;;;;18.35;13.13;;;14.10;99.90;;;;;;5044877;28;20514;-65
2023/07/07 02:23:44;;;;;;;19.70;13.25;;;14.10;99.90;;;;;;5050953;28;20911;-66
2023/07/07 02:26:11;;;;;;;16.88;12.63;;;14.10;99.90;;;;;;5047748;28;20426;-65
2023/07/07 02:28:37;;;;;;;20.48;13.45;;;14.10;99.90;;;;;;5046783;28;20427;-66
2023/07/07 02:31:02;;;;;;;17.50;13.20;;;14.10;99.90;;;;;;5043908;28;20438;-65
2023/07/07 02:33:31;;;;;;;19.13;13.33;;;14.10;99.90;;;;;;5040537;28;20425;-66
2023/07/07 02:36:06;;;;;;;17.27;12.88;;;14.10;99.90;;;;;;5046175;28;20413;-65
2023/07/07 02:38:32;;;;;;;15.52;12.57;;;14.10;99.90;;;;;;5045797;28;20785;-65
2023/07/07 02:40:58;;;;;;;17.20;13.10;;;14.00;99.90;;;;;;5044720;28;20425;-65
2023/07/07 02:43:24;;;;;;;16.40;13.10;;;14.00;99.90;;;;;;5042942;28;20786;-65
2023/07/07 02:45:51;;;;;;;19.83;13.05;;;14.00;99.90;;;;;;5041927;28;20459;-66
2023/07/07 02:48:18;;;;;;;18.52;13.35;;;14.00;99.90;;;;;;5046674;28;20417;-65
2023/07/07 02:50:52;;;;;;;16.75;13.57;;;14.10;99.90;;;;;;5039919;28;20477;-66
2023/07/07 02:53:18;;;;;;;15.43;13.02;;;14.00;99.90;;;;;;5045290;28;20405;-66
2023/07/07 02:55:45;;;;;;;17.17;13.50;;;14.00;99.90;;;;;;5043334;28;20981;-65
2023/07/07 02:58:11;;;;;;;17.20;14.02;;;14.00;99.90;;;;;;5046618;28;20488;-65
2023/07/07 03:00:37;;;;;;;19.30;14.18;;;14.00;99.90;;;;;;5025105;28;20504;-65
2023/07/07 03:03:03;;;;;;;17.57;13.40;;;14.00;99.90;;;;;;5043414;28;20441;-66
2023/07/07 03:05:31;;;;;;;16.07;12.90;;;14.00;99.90;;;;;;5044643;28;20428;-66
2023/07/07 03:07:56;;;;;;;18.35;13.65;;;14.00;99.90;;;;;;5051245;28;20952;-66
2023/07/07 03:10:22;;;;;;;17.98;13.70;;;14.00;99.90;;;;;;5041341;28;20424;-66
2023/07/07 03:12:48;;;;;;;16.60;13.80;;;13.90;99.90;;;;;;5042601;28;20467;-66
2023/07/07 03:15:14;;;;;;;17.73;14.32;;;13.90;99.90;;;;;;5040290;28;20416;-66
2023/07/07 03:17:39;;;;;;;17.67;14.85;;;13.90;99.90;;;;;;5045105;28;20433;-66
2023/07/07 03:20:08;;;;;;;20.43;15.23;;;13.90;99.90;;;;;;5043676;28;20429;-66
2023/07/07 03:22:35;;;;;;;20.20;15.07;;;13.90;99.90;;;;;;5047633;28;20398;-66
2023/07/07 03:25:01;;;;;;;18.48;16.05;;;13.90;99.90;;;;;;5022873;28;20998;-66
2023/07/07 03:27:27;;;;;;;20.13;16.27;;;13.90;99.90;;;;;;5042516;28;20417;-66
2023/07/07 03:29:52;;;;;;;20.95;15.48;;;13.90;99.90;;;;;;5042296;28;20413;-66
2023/07/07 03:32:18;;;;;;;23.17;16.60;;;13.90;99.90;;;;;;5026428;28;20428;-66
2023/07/07 03:34:44;;;;;;;19.70;15.75;;;13.90;99.90;;;;;;5045392;28;20428;-66
2023/07/07 03:37:09;;;;;;;18.92;15.30;;;14.00;99.90;;;;;;5041792;28;20421;-66
2023/07/07 03:39:35;;;;;;;18.38;15.50;;;13.90;99.90;;;;;;5048434;28;20443;-66
2023/07/07 03:42:01;;;;;;;19.67;15.98;;;13.90;99.90;;;;;;5046248;28;20401;-66
2023/07/07 03:44:26;;;;;;;20.33;15.90;;;13.90;99.90;;;;;;5041212;28;20426;-65
2023/07/07 03:46:52;;;;;;;21.23;16.15;;;13.90;99.90;;;;;;5042910;28;20424;-66
2023/07/07 03:49:18;;;;;;;20.07;15.73;;;13.90;99.90;;;;;;5041710;22;20462;-79
2023/07/07 03:51:43;;;;;;;22.00;16.20;;;13.90;99.90;;;;;;4985007;28;20433;-79
2023/07/07 03:54:09;;;;;;;19.40;16.43;;;13.90;99.90;;;;;;4982786;28;20489;-79
2023/07/07 03:56:35;;;;;;;20.83;16.10;;;13.90;99.90;;;;;;5004813;28;20426;-79
2023/07/07 03:59:01;;;;;;;19.15;17.05;;;13.90;99.90;;;;;;4983550;28;20465;-78
2023/07/07 04:01:27;;;;;;;22.17;17.20;;;13.90;99.90;;;;;;4985813;28;20501;-79
2023/07/07 04:03:52;;;;;;;21.45;16.33;;;13.90;99.90;;;;;;4982763;28;20438;-78
2023/07/07 04:06:19;;;;;;;20.33;16.80;;;13.90;99.90;;;;;;4983610;28;20414;-78
2023/07/07 04:08:45;;;;;;;21.17;16.52;;;13.90;99.90;;;;;;4981880;28;20426;-78
2023/07/07 04:11:17;;;;;;;23.77;17.57;;;13.90;99.90;;;;;;4985696;28;20463;-78
2023/07/07 04:13:46;;;;;;;22.58;17.90;;;13.90;99.90;;;;;;4986719;28;20485;-79
2023/07/07 04:16:18;;;;;;;20.95;16.67;;;14.00;99.90;;;;;;4987330;28;20407;-79
2023/07/07 04:18:44;;;;;;;21.27;16.95;;;14.00;99.90;;;;;;4986329;28;20456;-79
2023/07/07 04:21:13;;;;;;;23.27;17.88;;;13.90;99.90;;;;;;4986490;28;20469;-78
2023/07/07 04:23:41;;;;;;;22.50;16.70;;;14.00;99.90;;;;;;4983423;28;20834;-79
2023/07/07 04:26:08;;;;;;;23.67;17.80;;;14.00;99.90;;;;;;4979808;28;20767;-79
2023/07/07 04:28:36;;;;;;;21.95;17.83;;;14.00;99.90;;;;;;4985528;28;20456;-78
2023/07/07 04:31:03;;;;;;;24.67;17.53;;;14.00;99.90;;;;;;4986000;28;20442;-79
2023/07/07 04:33:30;;;;;;;23.48;17.58;;;14.00;99.90;;;;;;4979965;28;20423;-78
2023/07/07 04:36:01;;;;;;;22.05;18.48;;;14.00;99.90;;;;;;4989899;28;20422;-79
2023/07/07 04:38:30;;;;;;;25.67;18.63;;;14.00;99.90;;;;;;4990579;28;20918;-78
2023/07/07 04:41:10;;;;;;;21.90;17.77;;;14.00;99.90;;;;;;4982613;28;20877;-78
2023/07/07 04:43:38;;;;;;;21.98;18.10;;;14.00;99.90;;;;;;4988555;28;20530;-78
2023/07/07 04:46:05;;;;;;;22.00;17.90;;;14.10;99.90;;;;;;4973610;28;20406;-78
2023/07/07 04:48:32;;;;;;;23.35;18.33;;;14.10;99.90;;;;;;4991332;28;20449;-78
2023/07/07 04:51:03;;;;;;;21.92;17.27;;;14.10;99.90;;;;;;4989874;28;20956;-79
2023/07/07 04:53:30;;;;;;;22.88;18.70;;;14.10;99.90;;;;;;4973512;28;20920;-79
2023/07/07 04:55:57;;;;;;;22.90;17.97;;;14.10;99.90;;;;;;4989314;28;20438;-79
2023/07/07 04:58:27;;;;;;;21.97;17.70;;;14.10;99.90;;;;;;4989335;28;20430;-79
2023/07/07 05:00:53;;;;;;;22.70;18.80;;;14.10;99.90;;;;;;5004453;28;20786;-80
2023/07/07 05:03:19;;;;;;;22.10;18.30;;;14.10;99.90;;;;;;4989428;28;20421;-80
2023/07/07 05:05:45;;;;;;;22.70;18.17;;;14.20;99.90;;;;;;4989226;28;20411;-78
2023/07/07 05:08:10;;;;;;;25.10;17.73;;;14.20;99.90;;;;;;4990446;28;20414;-79
2023/07/07 05:10:36;;;;;;;22.20;18.30;;;14.20;99.90;;;;;;4996959;28;20495;-79
2023/07/07 05:13:02;;;;;;;24.27;18.43;;;14.30;99.90;;;;;;5028275;28;20449;-78
2023/07/07 05:15:27;;;;;;;23.10;18.63;;;14.30;99.90;;;;;;5017549;28;20544;-79
2023/07/07 05:17:53;;;;;;;20.73;18.03;;;14.30;99.90;;;;;;4986199;28;20434;-79
2023/07/07 05:20:19;;;;;;;21.70;18.67;;;14.30;99.90;;;;;;4989031;28;20555;-79
2023/07/07 05:22:44;;;;;;;23.27;18.00;;;14.30;99.90;;;;;;4989888;28;20882;-78
2023/07/07 05:25:10;;;;;;;20.73;18.30;;;14.30;99.90;;;;;;4983297;28;20420;-78
2023/07/07 05:27:35;;;;;;;20.45;17.25;;;14.40;99.90;;;;;;4981827;28;20493;-78
2023/07/07 05:30:01;;;;;;;22.35;18.52;;;14.40;99.90;;;;;;4988603;28;20418;-78
2023/07/07 05:32:27;;;;;;;22.23;17.23;;;14.40;99.90;;;;;;4987237;28;20429;-79
2023/07/07 05:34:52;;;;;;;22.42;16.95;;;14.50;99.90;;;;;;4987339;28;20458;-79
2023/07/07 05:37:18;;;;;;;21.07;17.87;;;14.50;99.90;;;;;;4987888;28;21125;-78
2023/07/07 05:39:47;;;;;;;25.37;17.83;;;14.50;99.90;;;;;;4978180;28;20419;-78
2023/07/07 05:42:13;;;;;;;19.90;17.73;;;14.50;99.90;;;;;;5000587;28;20415;-78
2023/07/07 05:44:39;;;;;;;19.83;16.88;;;14.60;99.90;;;;;;4980519;28;20495;-78
2023/07/07 05:47:04;;;;;;;22.73;17.70;;;14.60;99.90;;;;;;5000569;28;20413;-78
2023/07/07 05:49:30;;;;;;;20.00;17.83;;;14.70;99.90;;;;;;4997784;28;20889;-78
2023/07/07 05:51:56;;;;;;;21.35;17.20;;;14.70;99.90;;;;;;4978315;28;20435;-79
2023/07/07 05:54:22;;;;;;;22.20;17.70;;;14.80;99.90;;;;;;4997645;28;20497;-80
2023/07/07 05:56:49;;;;;;;23.13;16.77;;;14.80;99.90;;;;;;5001977;28;20842;-78
2023/07/07 05:59:15;;;;;;;20.45;16.58;;;15.40;99.90;;;;;;4993218;28;20443;-78
2023/07/07 06:01:41;;;;;;;22.43;16.60;;;15.10;99.90;;;;;;4993593;28;20931;-78
2023/07/07 06:04:06;;;;;;;19.87;16.10;;;15.80;99.90;;;;;;4994177;28;20473;-79
2023/07/07 06:06:32;;;;;;;20.20;16.30;;;15.90;99.90;;;;;;4999273;28;20452;-79
2023/07/07 06:08:57;;;;;;;20.00;15.80;;;15.20;99.90;;;;;;4993427;28;20474;-80
2023/07/07 06:11:23;;;;;;;21.05;15.23;;;15.10;99.90;;;;;;5018071;28;20472;-78
2023/07/07 06:13:49;;;;;;;18.45;15.18;;;15.20;99.90;;;;;;5018890;28;20407;-79
2023/07/07 06:16:17;;;;;;;17.77;13.77;;;15.30;99.90;;;;;;4996883;28;20476;-78
2023/07/07 06:18:43;;;;;;;20.13;14.40;;;15.20;99.90;;;;;;4992280;28;20789;-79
2023/07/07 06:21:08;;;;;;;16.53;13.73;;;15.40;99.90;;;;;;4983911;28;20512;-79
2023/07/07 06:23:34;;;;;;;18.15;13.60;;;15.50;99.90;;;;;;5008357;28;20476;-79
2023/07/07 06:26:00;;;;;;;19.00;13.40;;;15.50;99.90;;;;;;4995568;28;20871;-78
2023/07/07 06:28:26;;;;;;;19.65;13.55;;;15.60;99.90;;;;;;4986932;28;20576;-78
2023/07/07 06:30:52;;;;;;;16.30;12.73;;;16.00;99.90;;;;;;4976771;28;20419;-78
2023/07/07 06:33:19;;;;;;;18.65;12.23;;;15.90;99.90;;;;;;4993374;28;20444;-78
2023/07/07 06:35:45;;;;;;;17.37;12.13;;;15.80;99.90;;;;;;4990782;28;20923;-78
2023/07/07 06:38:11;;;;;;;15.70;11.60;;;15.90;99.90;;;;;;4980576;28;20481;-78
2023/07/07 06:40:37;;;;;;;14.93;11.68;;;15.90;99.90;;;;;;4976362;28;20452;-79
2023/07/07 06:43:03;;;;;;;16.52;11.88;;;16.00;99.90;;;;;;4994637;28;20457;-79
2023/07/07 06:45:31;;;;;;;16.92;12.02;;;16.10;99.90;;;;;;4997089;28;20407;-78
2023/07/07 06:47:57;;;;;;;15.02;12.13;;;16.20;99.90;;;;;;4997245;28;20422;-80
2023/07/07 06:50:31;;;;;;;17.48;12.05;;;16.20;99.90;;;;;;5004592;28;20407;-81
2023/07/07 06:52:57;;;;;;;15.77;10.65;;;16.30;99.90;;;;;;5005680;28;20413;-80
2023/07/07 06:55:32;;;;;;;13.35;9.68;;;16.30;99.90;;;;;;4991692;28;20517;-79
2023/07/07 06:57:58;;;;;;;14.98;10.02;;;16.50;99.90;;;;;;4982117;28;20478;-79
2023/07/07 07:00:24;;;;;;;16.45;9.32;;;16.60;99.90;;;;;;5000092;28;20421;-79
2023/07/07 07:02:49;;;;;;;13.57;8.73;;;16.60;99.90;;;;;;4981922;28;20433;-80
2023/07/07 07:05:15;;;;;;;16.15;9.07;;;16.70;99.90;;;;;;4998941;28;20507;-81
2023/07/07 07:07:41;;;;;;;12.55;9.45;;;17.50;99.90;;;;;;4997583;28;20422;-79
2023/07/07 07:10:07;;;;;;;13.23;9.23;;;16.90;99.90;;;;;;4992978;28;20516;-79
2023/07/07 07:12:33;;;;;;;11.65;8.32;;;17.00;99.90;;;;;;4985520;28;20417;-79
2023/07/07 07:14:58;;;;;;;10.38;7.45;;;17.50;99.90;;;;;;5010674;28;20509;-79
2023/07/07 07:17:24;;;;;;;13.33;7.40;;;17.20;99.90;;;;;;4995995;28;20449;-80
2023/07/07 07:19:54;;;;;;;13.30;7.70;;;17.30;99.90;;;;;;5033987;28;20407;-79
2023/07/07 07:22:22;;;;;;;11.53;7.07;;;17.40;99.90;;;;;;4984606;28;20423;-80
2023/07/07 07:24:51;;;;;;;13.30;6.95;;;17.40;99.90;;;;;;4987154;28;20411;-79
2023/07/07 07:27:17;;;;;;;11.02;6.55;;;17.60;99.90;;;;;;5002539;28;20419;-79
2023/07/07 07:29:45;;;;;;;10.90;6.38;;;17.90;99.90;;;;;;5005938;28;20436;-80
2023/07/07 07:32:14;;;;;;;11.85;5.72;;;17.80;99.90;;;;;;4989324;28;20418;-79
2023/07/07 07:34:50;;;;;;;9.93;5.75;;;17.90;99.90;;;;;;5003682;28;20411;-79
2023/07/07 07:37:18;;;;;;;11.13;5.83;;;18.00;99.90;;;;;;4993486;28;20461;-79
2023/07/07 07:39:45;;;;;;;7.00;4.78;;;18.00;99.90;;;;;;4996405;28;20426;-79
2023/07/07 07:42:11;;;;;;;10.93;5.35;;;18.10;99.90;;;;;;4984760;28;20918;-79
2023/07/07 07:44:36;;;;;;;10.00;5.28;;;18.20;99.90;;;;;;4999646;28;20432;-80
2023/07/07 07:47:05;;;;;;;9.88;5.20;;;18.30;99.90;;;;;;4997789;28;20452;-79
2023/07/07 07:49:31;;;;;;;8.38;4.43;;;18.30;99.90;;;;;;4998777;28;20419;-80
2023/07/07 07:51:57;;;;;;;7.97;4.38;;;18.40;99.90;;;;;;5000080;28;20406;-81
2023/07/07 07:54:23;;;;;;;8.30;4.30;;;19.00;99.90;;;;;;4996700;28;20411;-80
2023/07/07 07:56:49;;;;;;;8.07;3.80;;;18.70;99.90;;;;;;4979414;28;20402;-79
2023/07/07 07:59:15;;;;;;;8.70;4.30;;;18.70;99.90;;;;;;4984121;28;20431;-80
2023/07/07 08:01:42;;;;;;;6.43;4.05;;;18.80;99.90;;;;;;4985941;28;20415;-80
2023/07/07 08:19:23;;;;;;;7.00;4.00;;;19.50;99.90;;;;;;5004935;28;20417;-80
2023/07/07 08:23:24;;;;;;;8.50;3.97;;;19.60;99.90;;;;;;5063503;28;20388;-79
2023/07/07 08:26:57;;;;;;;9.03;3.77;;;19.90;99.90;;;;;;4956486;29;20456;-81
2023/07/07 08:30:50;;;;;;;6.65;3.45;;;20.30;99.90;;;;;;4949250;28;20452;-79
2023/07/07 08:35:04;;;;;;;6.50;3.50;;;20.70;99.90;;;;;;5009077;28;20417;-79
2023/07/07 08:38:49;;;;;;;5.85;3.53;;;21.20;98.90;;;;;;4862866;29;20443;-79
2023/07/07 08:45:56;;;;;;;6.03;3.00;;;22.20;96.30;;;;;;4944613;29;20420;-81
2023/07/07 08:49:05;;;;;;;5.70;2.90;;;22.50;92.60;;;;;;5027579;28;20407;-79
2023/07/07 08:52:28;;;;;;;4.97;2.72;;;22.80;91.40;;;;;;5013410;28;20424;-82
2023/07/07 08:56:08;;;;;;;5.83;2.90;;;23.00;88.30;;;;;;4985940;28;20449;-80
2023/07/07 08:58:57;;;;;;;7.13;3.10;;;23.30;89.30;;;;;;5005724;28;20434;-81
2023/07/07 09:02:30;;;;;;;5.78;3.10;;;23.70;87.70;;;;;;5051345;28;20444;-80
2023/07/07 09:05:32;;;;;;;5.40;2.60;;;23.80;85.70;;;;;;5002201;28;20388;-79
2023/07/07 09:08:57;;;;;;;6.03;3.25;;;24.00;82.80;;;;;;5003497;28;20406;-81
2023/07/07 09:11:59;;;;;;;6.33;3.10;;;24.20;80.30;;;;;;4991596;28;20418;-80
2023/07/07 09:15:04;;;;;;;4.88;2.80;;;24.40;80.50;;;;;;4990993;28;20427;-82
2023/07/07 09:18:07;;;;;;;5.07;2.70;;;24.60;78.00;;;;;;4987128;28;20517;-81
2023/07/07 09:22:02;;;;;;;5.80;2.83;;;24.80;76.90;;;;;;5012868;28;20410;-82
2023/07/07 09:25:24;;;;;;;6.38;2.90;;;25.10;77.00;;;;;;5011974;28;20409;-81
2023/07/07 09:28:54;;;;;;;5.03;2.72;;;25.20;73.50;;;;;;5061442;28;20412;-81
2023/07/07 09:32:29;;;;;;;5.38;2.95;;;25.30;73.80;;;;;;5024252;28;20430;-82
2023/07/07 09:36:22;;;;;;;7.05;3.10;;;25.50;75.60;;;;;;4938883;28;20528;-79
2023/07/07 09:40:35;;;;;;;5.55;2.97;;;25.60;74.00;;;;;;4993158;28;20837;-79
2023/07/07 09:43:58;;;;;;;5.38;3.03;;;26.00;72.70;;;;;;4964106;28;20795;-79
2023/07/07 09:47:36;;;;;;;4.70;2.88;;;26.20;72.20;;;;;;4955148;28;20483;-79
2023/07/07 09:50:52;;;;;;;4.82;3.10;;;26.40;69.80;;;;;;5005762;22;20423;-78
2023/07/07 09:57:03;;;;;;;5.53;3.00;;;26.50;68.80;;;;;;4968999;28;20403;-79
2023/07/07 10:00:07;;;;;;;4.82;3.03;;;26.70;68.80;;;;;;4974617;28;20425;-79
2023/07/07 10:03:33;;;;;;;5.07;2.80;;;26.80;66.00;;;;;;4993197;28;20472;-79
2023/07/07 10:18:06;;;;;;;3.90;2.80;;;27.70;64.70;;;;;;4913460;28;20427;-80
2023/07/07 10:21:46;;;;;;;7.10;2.90;;;27.80;62.30;;;;;;4917132;28;20427;-79
2023/07/07 10:28:18;;;;;;;5.20;2.80;;;27.60;60.90;;;;;;4943818;28;20408;-80
2023/07/07 10:31:31;;;;;;;3.83;2.80;;;27.60;62.20;;;;;;4989668;28;20415;-80
2023/07/07 10:53:50;;;;;;;5.22;3.17;;;27.90;60.10;;;;;;5043961;28;20753;-80
2023/07/07 10:57:47;;;;;;;4.68;2.70;;;28.00;61.30;;;;;;4988469;28;20429;-79
2023/07/07 11:01:03;;;;;;;5.15;2.70;;;28.30;60.90;;;;;;4988110;28;20475;-79
2023/07/07 11:04:25;;;;;;;7.15;2.70;;;28.70;61.30;;;;;;4950962;28;20785;-80
2023/07/07 11:23:52;;;;;;;4.22;2.80;;;28.90;55.30;;;;;;4976298;28;20409;-79
2023/07/07 11:35:05;;;;;;;4.40;2.75;;;29.30;53.30;;;;;;4911466;28;20829;-80
2023/07/07 11:38:44;;;;;;;6.57;3.35;;;29.40;52.40;;;;;;4932038;28;20480;-80
2023/07/07 11:49:52;;;;;;;3.90;2.58;;;29.60;51.90;;;;;;4838337;29;20432;-79
2023/07/07 11:57:38;;;;;;;4.63;2.83;;;29.70;51.30;;;;;;4905927;28;20479;-80
2023/07/07 12:01:26;;;;;;;3.97;2.65;;;29.70;52.50;;;;;;4900497;28;20466;-81
2023/07/07 12:11:21;;;;;;;4.33;2.73;;;30.30;52.80;;;;;;5061089;28;20477;-67
2023/07/07 12:14:12;;;;;;;4.50;2.80;;;30.40;52.00;;;;;;5046112;28;20428;-67
2023/07/07 12:16:42;;;;;;;4.18;2.60;;;30.50;51.70;;;;;;5049590;28;20447;-67
2023/07/07 12:19:16;;;;;;;5.10;2.90;;;30.50;49.90;;;;;;5040953;28;20569;-67
2023/07/07 12:21:44;;;;;;;4.00;2.80;;;30.60;50.50;;;;;;5039378;28;20413;-67
2023/07/07 12:24:38;;;;;;;4.22;2.70;;;30.60;51.00;;;;;;5037098;28;20421;-67
2023/07/07 12:27:30;;;;;;;5.20;2.90;;;30.80;51.10;;;;;;5044086;28;20399;-67
2023/07/07 12:29:57;;;;;;;5.45;2.95;;;30.80;49.70;;;;;;5041771;28;20974;-67
2023/07/07 12:32:23;;;;;;;4.82;2.95;;;30.80;49.50;;;;;;5048086;28;20466;-67
2023/07/07 12:35:01;;;;;;;4.47;2.83;;;30.80;49.90;;;;;;5037912;28;20489;-67
2023/07/07 12:37:26;;;;;;;4.13;2.78;;;30.80;50.60;;;;;;5042487;28;20988;-67
2023/07/07 12:39:59;;;;;;;4.17;2.90;;;30.80;51.00;;;;;;5046499;28;20409;-67
2023/07/07 12:42:28;;;;;;;4.70;2.83;;;30.90;52.20;;;;;;5031052;28;20743;-67
2023/07/07 12:45:09;;;;;;;4.40;2.70;;;30.90;51.80;;;;;;5038403;28;20413;-67
2023/07/07 12:47:40;;;;;;;3.85;2.70;;;30.90;50.40;;;;;;5056634;28;20415;-67
2023/07/07 12:50:23;;;;;;;4.28;2.88;;;30.90;50.90;;;;;;5038792;28;20405;-67
2023/07/07 12:52:50;;;;;;;4.72;2.80;;;30.90;50.30;;;;;;5040859;28;20905;-67
2023/07/07 12:55:22;;;;;;;4.78;2.80;;;31.00;50.30;;;;;;5032853;28;20449;-67
2023/07/07 12:58:29;;;;;;;4.55;2.90;;;31.10;50.10;;;;;;5044046;28;20985;-67
2023/07/07 13:01:06;;;;;;;4.75;2.65;;;31.20;50.00;;;;;;5039105;28;20456;-67
2023/07/07 13:03:31;;;;;;;4.22;2.80;;;31.10;47.10;;;;;;5045619;28;20415;-67
2023/07/07 13:06:00;;;;;;;4.35;2.70;;;30.90;47.80;;;;;;5041271;28;20997;-67
2023/07/07 13:08:37;;;;;;;4.00;2.70;;;30.70;47.10;;;;;;5049787;28;21162;-67
2023/07/07 13:11:32;;;;;;;3.95;2.78;;;30.50;47.60;;;;;;5045771;28;20500;-67
2023/07/07 13:13:57;;;;;;;5.00;2.90;;;30.30;47.80;;;;;;5042345;28;20895;-67
2023/07/07 13:16:24;;;;;;;4.32;2.80;;;30.20;47.80;;;;;;5049165;28;20477;-67
2023/07/07 13:18:50;;;;;;;5.07;2.90;;;30.20;48.80;;;;;;5050482;28;20549;-67
2023/07/07 13:21:17;;;;;;;4.63;3.13;;;30.20;49.60;;;;;;5040671;28;20415;-67
2023/07/07 13:23:46;;;;;;;4.30;2.80;;;30.20;48.50;;;;;;5041212;28;20437;-67
2023/07/07 13:26:26;;;;;;;4.90;2.90;;;30.20;49.60;;;;;;5039902;28;20488;-67
2023/07/07 13:28:56;;;;;;;5.10;2.88;;;30.30;50.00;;;;;;5044864;28;20413;-67
2023/07/07 13:31:25;;;;;;;4.93;2.90;;;30.30;49.70;;;;;;5038872;28;20482;-67
2023/07/07 13:33:51;;;;;;;4.25;2.90;;;30.40;50.70;;;;;;5041051;28;20899;-67
2023/07/07 13:36:16;;;;;;;4.00;2.75;;;30.40;50.70;;;;;;5046538;28;20403;-67
2023/07/07 13:38:46;;;;;;;5.60;3.07;;;30.40;48.30;;;;;;5041660;28;20458;-67
2023/07/07 13:41:17;;;;;;;5.35;3.00;;;30.30;48.60;;;;;;5038420;28;20524;-67
2023/07/07 13:43:45;;;;;;;4.55;2.70;;;30.30;49.00;;;;;;5046730;28;20431;-67
2023/07/07 13:46:26;;;;;;;5.18;2.92;;;30.30;48.30;;;;;;5046696;28;20499;-66
2023/07/07 13:49:01;;;;;;;4.75;2.90;;;30.20;48.70;;;;;;5041883;28;20459;-67
2023/07/07 13:51:39;;;;;;;4.45;2.72;;;30.20;50.20;;;;;;5041228;28;20397;-67
2023/07/07 13:54:06;;;;;;;4.70;2.90;;;30.20;50.90;;;;;;5045479;28;20426;-67
2023/07/07 13:57:05;;;;;;;3.72;2.78;;;30.20;51.50;;;;;;5042294;28;20496;-67
2023/07/07 13:59:31;;;;;;;5.20;2.90;;;30.30;51.10;;;;;;5027046;28;20549;-67
2023/07/07 14:01:58;;;;;;;4.00;2.70;;;30.40;49.50;;;;;;5031940;28;20434;-67
2023/07/07 14:04:31;;;;;;;4.75;3.00;;;30.30;50.40;;;;;;5040978;28;20409;-67
2023/07/07 14:06:57;;;;;;;4.00;2.63;;;30.10;50.40;;;;;;5044400;28;20409;-67
2023/07/07 14:09:26;;;;;;;4.70;2.72;;;30.10;50.70;;;;;;5047332;28;20421;-66
2023/07/07 14:11:55;;;;;;;4.03;2.70;;;30.10;51.40;;;;;;5050726;28;20952;-67
2023/07/07 14:14:22;;;;;;;5.35;2.95;;;30.00;51.60;;;;;;5049967;28;20397;-67
2023/07/07 14:17:07;;;;;;;4.32;2.55;;;30.00;52.20;;;;;;5050029;28;20926;-67
2023/07/07 14:19:53;;;;;;;5.03;2.63;;;29.90;51.30;;;;;;5043007;28;20887;-67
2023/07/07 14:22:19;;;;;;;4.93;2.53;;;29.90;52.00;;;;;;5051102;28;20394;-66
2023/07/07 14:24:45;;;;;;;6.40;2.92;;;29.90;52.50;;;;;;5047559;28;20474;-67
2023/07/07 14:27:13;;;;;;;4.70;2.73;;;30.00;51.90;;;;;;5045781;28;20437;-67
2023/07/07 14:29:41;;;;;;;3.70;2.60;;;30.10;53.10;;;;;;5043572;28;20421;-67
2023/07/07 14:32:14;;;;;;;4.10;2.80;;;30.10;53.30;;;;;;5042574;28;20429;-67
2023/07/07 14:34:48;;;;;;;4.75;2.65;;;30.20;53.80;;;;;;5048815;28;20460;-67
2023/07/07 14:37:22;;;;;;;4.57;2.72;;;30.20;53.30;;;;;;5044373;28;20759;-67
2023/07/07 14:39:50;;;;;;;4.88;2.72;;;30.20;54.50;;;;;;5045810;28;20492;-67
2023/07/07 14:42:21;;;;;;;3.65;2.70;;;30.30;52.90;;;;;;5042007;28;21498;-67
2023/07/07 14:44:48;;;;;;;4.70;2.83;;;30.30;53.90;;;;;;5048534;28;20405;-67
2023/07/07 14:47:37;;;;;;;4.77;2.77;;;30.30;54.20;;;;;;5046797;28;20723;-66
2023/07/07 14:50:10;;;;;;;6.53;2.95;;;30.30;55.00;;;;;;5034952;28;20391;-67
2023/07/07 14:52:37;;;;;;;4.82;2.72;;;30.40;54.70;;;;;;5046432;28;20429;-66
2023/07/07 14:55:12;;;;;;;3.85;2.67;;;30.40;54.60;;;;;;5040222;28;20407;-67
2023/07/07 14:57:41;;;;;;;5.28;2.60;;;30.40;54.40;;;;;;5043575;28;20417;-67
2023/07/07 15:00:29;;;;;;;6.10;2.65;;;30.30;54.00;;;;;;5048548;28;20441;-67
2023/07/07 15:02:55;;;;;;;3.60;2.63;;;30.30;54.40;;;;;;5044994;28;20409;-66
2023/07/07 15:05:28;;;;;;;5.30;2.70;;;30.20;54.20;;;;;;5047353;28;20468;-66
2023/07/07 15:07:58;;;;;;;3.60;2.50;;;30.20;52.70;;;;;;5043911;28;20437;-66